sensor_id;sensor_type;location;lat;lon;timestamp;P1;durP1;ratioP1;P2;durP2;ratioP2
59207;SDS011;44977;53.132;6.408;2022-09-20T00:03:54;10.80;;;2.08;;
59207;SDS011;44977;53.132;6.408;2022-09-20T00:08:56;12.50;;;1.80;;
59207;SDS011;44977;53.132;6.408;2022-09-20T00:13:59;10.25;;;2.00;;
59207;SDS011;44977;53.132;6.408;2022-09-20T00:19:01;12.90;;;1.90;;
59207;SDS011;44977;53.132;6.408;2022-09-20T00:24:03;10.30;;;2.55;;
59207;SDS011;44977;53.132;6.408;2022-09-20T00:29:04;10.30;;;1.75;;
59207;SDS011;44977;53.132;6.408;2022-09-20T00:34:05;11.40;;;2.25;;
59207;SDS011;44977;53.132;6.408;2022-09-20T00:39:25;9.15;;;1.80;;
59207;SDS011;44977;53.132;6.408;2022-09-20T00:44:42;8.82;;;1.85;;
59207;SDS011;44977;53.132;6.408;2022-09-20T00:49:49;8.32;;;1.98;;
59207;SDS011;44977;53.132;6.408;2022-09-20T00:54:53;10.90;;;2.03;;
59207;SDS011;44977;53.132;6.408;2022-09-20T00:59:55;10.27;;;1.83;;
59207;SDS011;44977;53.132;6.408;2022-09-20T01:04:56;9.63;;;1.75;;
59207;SDS011;44977;53.132;6.408;2022-09-20T01:09:57;8.02;;;1.80;;
59207;SDS011;44977;53.132;6.408;2022-09-20T01:14:58;9.70;;;1.85;;
59207;SDS011;44977;53.132;6.408;2022-09-20T01:25:40;8.13;;;1.70;;
59207;SDS011;44977;53.132;6.408;2022-09-20T01:36:19;9.32;;;2.00;;
59207;SDS011;44977;53.132;6.408;2022-09-20T01:41:36;11.68;;;2.05;;
59207;SDS011;44977;53.132;6.408;2022-09-20T01:46:43;11.15;;;2.13;;
59207;SDS011;44977;53.132;6.408;2022-09-20T02:13:28;9.00;;;1.80;;
59207;SDS011;44977;53.132;6.408;2022-09-20T02:45:27;9.82;;;2.33;;
59207;SDS011;44977;53.132;6.408;2022-09-20T02:56:10;7.13;;;1.63;;
59207;SDS011;44977;53.132;6.408;2022-09-20T03:17:09;9.10;;;1.98;;
59207;SDS011;44977;53.132;6.408;2022-09-20T03:28:02;7.88;;;2.13;;
59207;SDS011;44977;53.132;6.408;2022-09-20T04:11:14;6.90;;;1.90;;
59207;SDS011;44977;53.132;6.408;2022-09-20T04:22:08;9.32;;;1.80;;
59207;SDS011;44977;53.132;6.408;2022-09-20T04:37:51;10.07;;;2.10;;
59207;SDS011;44977;53.132;6.408;2022-09-20T04:59:08;5.43;;;1.50;;
59207;SDS011;44977;53.132;6.408;2022-09-20T05:04:19;7.68;;;2.00;;
59207;SDS011;44977;53.132;6.408;2022-09-20T05:25:25;6.68;;;1.58;;
59207;SDS011;44977;53.132;6.408;2022-09-20T05:30:54;7.47;;;1.77;;
59207;SDS011;44977;53.132;6.408;2022-09-20T05:36:15;7.53;;;2.00;;
59207;SDS011;44977;53.132;6.408;2022-09-20T06:03:08;6.03;;;2.03;;
59207;SDS011;44977;53.132;6.408;2022-09-20T06:08:44;8.73;;;2.20;;
59207;SDS011;44977;53.132;6.408;2022-09-20T06:24:54;12.40;;;2.60;;
59207;SDS011;44977;53.132;6.408;2022-09-20T06:30:03;7.43;;;2.42;;
59207;SDS011;44977;53.132;6.408;2022-09-20T06:35:07;10.45;;;2.97;;
59207;SDS011;44977;53.132;6.408;2022-09-20T06:45:45;8.32;;;2.47;;
59207;SDS011;44977;53.132;6.408;2022-09-20T06:50:47;8.00;;;2.40;;
59207;SDS011;44977;53.132;6.408;2022-09-20T06:55:48;7.70;;;2.08;;
59207;SDS011;44977;53.132;6.408;2022-09-20T07:00:50;8.38;;;1.52;;
59207;SDS011;44977;53.132;6.408;2022-09-20T07:05:52;8.10;;;2.35;;
59207;SDS011;44977;53.132;6.408;2022-09-20T07:10:53;6.60;;;1.70;;
59207;SDS011;44977;53.132;6.408;2022-09-20T07:16:00;10.85;;;2.10;;
59207;SDS011;44977;53.132;6.408;2022-09-20T07:21:03;7.88;;;2.60;;
59207;SDS011;44977;53.132;6.408;2022-09-20T07:26:05;8.60;;;2.10;;
59207;SDS011;44977;53.132;6.408;2022-09-20T07:31:06;9.27;;;1.73;;
59207;SDS011;44977;53.132;6.408;2022-09-20T07:36:08;6.88;;;1.80;;
59207;SDS011;44977;53.132;6.408;2022-09-20T07:41:11;6.38;;;1.58;;
59207;SDS011;44977;53.132;6.408;2022-09-20T07:46:12;7.68;;;1.92;;
59207;SDS011;44977;53.132;6.408;2022-09-20T07:51:12;11.18;;;2.10;;
59207;SDS011;44977;53.132;6.408;2022-09-20T07:56:14;7.93;;;1.60;;
59207;SDS011;44977;53.132;6.408;2022-09-20T08:01:17;7.13;;;1.67;;
59207;SDS011;44977;53.132;6.408;2022-09-20T08:06:19;7.50;;;1.70;;
59207;SDS011;44977;53.132;6.408;2022-09-20T08:11:21;7.90;;;1.90;;
59207;SDS011;44977;53.132;6.408;2022-09-20T08:16:25;8.27;;;1.42;;
59207;SDS011;44977;53.132;6.408;2022-09-20T08:21:28;7.13;;;1.58;;
59207;SDS011;44977;53.132;6.408;2022-09-20T08:26:30;7.47;;;1.40;;
59207;SDS011;44977;53.132;6.408;2022-09-20T08:31:32;5.32;;;1.20;;
59207;SDS011;44977;53.132;6.408;2022-09-20T08:36:38;9.10;;;1.55;;
59207;SDS011;44977;53.132;6.408;2022-09-20T08:46:47;7.00;;;1.33;;
59207;SDS011;44977;53.132;6.408;2022-09-20T08:51:53;8.15;;;1.40;;
59207;SDS011;44977;53.132;6.408;2022-09-20T08:57:10;7.90;;;1.30;;
59207;SDS011;44977;53.132;6.408;2022-09-20T09:09:43;11.30;;;1.77;;
59207;SDS011;44977;53.132;6.408;2022-09-20T09:14:46;5.72;;;1.17;;
59207;SDS011;44977;53.132;6.408;2022-09-20T09:19:49;11.77;;;1.73;;
59207;SDS011;44977;53.132;6.408;2022-09-20T09:25:05;7.53;;;1.45;;
59207;SDS011;44977;53.132;6.408;2022-09-20T09:30:18;6.25;;;1.30;;
59207;SDS011;44977;53.132;6.408;2022-09-20T09:40:31;7.78;;;1.33;;
59207;SDS011;44977;53.132;6.408;2022-09-20T09:45:32;6.80;;;1.55;;
59207;SDS011;44977;53.132;6.408;2022-09-20T09:50:43;6.00;;;1.10;;
59207;SDS011;44977;53.132;6.408;2022-09-20T10:01:40;6.97;;;1.35;;
59207;SDS011;44977;53.132;6.408;2022-09-20T10:07:00;6.22;;;1.35;;
59207;SDS011;44977;53.132;6.408;2022-09-20T10:12:07;7.18;;;1.42;;
59207;SDS011;44977;53.132;6.408;2022-09-20T10:39:09;5.88;;;1.20;;
59207;SDS011;44977;53.132;6.408;2022-09-20T10:55:07;4.53;;;1.02;;
59207;SDS011;44977;53.132;6.408;2022-09-20T11:00:30;6.80;;;1.30;;
59207;SDS011;44977;53.132;6.408;2022-09-20T11:10:54;7.25;;;1.15;;
59207;SDS011;44977;53.132;6.408;2022-09-20T11:16:14;6.22;;;1.02;;
59207;SDS011;44977;53.132;6.408;2022-09-20T11:21:27;6.85;;;1.20;;
59207;SDS011;44977;53.132;6.408;2022-09-20T11:31:40;7.70;;;1.30;;
59207;SDS011;44977;53.132;6.408;2022-09-20T11:36:48;5.93;;;1.15;;
59207;SDS011;44977;53.132;6.408;2022-09-20T11:41:57;5.20;;;1.05;;
59207;SDS011;44977;53.132;6.408;2022-09-20T11:47:00;7.75;;;1.50;;
59207;SDS011;44977;53.132;6.408;2022-09-20T11:57:31;4.87;;;0.90;;
59207;SDS011;44977;53.132;6.408;2022-09-20T12:02:33;5.28;;;1.00;;
59207;SDS011;44977;53.132;6.408;2022-09-20T12:07:51;7.13;;;1.15;;
59207;SDS011;44977;53.132;6.408;2022-09-20T12:13:00;3.97;;;0.80;;
59207;SDS011;44977;53.132;6.408;2022-09-20T12:28:59;5.72;;;1.20;;
59207;SDS011;44977;53.132;6.408;2022-09-20T12:39:22;6.63;;;1.00;;
59207;SDS011;44977;53.132;6.408;2022-09-20T12:44:31;4.17;;;1.20;;
59207;SDS011;44977;53.132;6.408;2022-09-20T12:55:05;6.10;;;1.02;;
59207;SDS011;44977;53.132;6.408;2022-09-20T13:00:26;4.72;;;0.90;;
59207;SDS011;44977;53.132;6.408;2022-09-20T13:10:47;6.15;;;1.10;;
59207;SDS011;44977;53.132;6.408;2022-09-20T13:15:58;4.97;;;0.80;;
59207;SDS011;44977;53.132;6.408;2022-09-20T13:21:00;8.00;;;1.02;;
59207;SDS011;44977;53.132;6.408;2022-09-20T13:26:06;3.10;;;0.70;;
59207;SDS011;44977;53.132;6.408;2022-09-20T13:36:23;5.65;;;1.00;;
59207;SDS011;44977;53.132;6.408;2022-09-20T13:41:26;6.57;;;1.55;;
59207;SDS011;44977;53.132;6.408;2022-09-20T13:46:31;7.90;;;1.30;;
59207;SDS011;44977;53.132;6.408;2022-09-20T13:51:32;7.97;;;1.40;;
59207;SDS011;44977;53.132;6.408;2022-09-20T13:56:33;7.20;;;1.33;;
59207;SDS011;44977;53.132;6.408;2022-09-20T14:01:34;7.05;;;1.25;;
59207;SDS011;44977;53.132;6.408;2022-09-20T14:06:35;5.88;;;1.27;;
59207;SDS011;44977;53.132;6.408;2022-09-20T14:11:36;5.07;;;1.10;;
59207;SDS011;44977;53.132;6.408;2022-09-20T14:16:37;5.80;;;1.10;;
59207;SDS011;44977;53.132;6.408;2022-09-20T14:21:40;4.72;;;1.00;;
59207;SDS011;44977;53.132;6.408;2022-09-20T14:26:41;5.43;;;1.00;;
59207;SDS011;44977;53.132;6.408;2022-09-20T14:32:41;6.55;;;1.10;;
59207;SDS011;44977;53.132;6.408;2022-09-20T14:42:41;6.15;;;1.30;;
59207;SDS011;44977;53.132;6.408;2022-09-20T14:47:55;8.02;;;1.20;;
59207;SDS011;44977;53.132;6.408;2022-09-20T14:53:00;4.55;;;1.00;;
59207;SDS011;44977;53.132;6.408;2022-09-20T14:58:12;5.90;;;1.13;;
59207;SDS011;44977;53.132;6.408;2022-09-20T15:03:14;9.25;;;2.17;;
59207;SDS011;44977;53.132;6.408;2022-09-20T15:08:20;6.40;;;1.75;;
59207;SDS011;44977;53.132;6.408;2022-09-20T15:13:22;6.30;;;1.30;;
59207;SDS011;44977;53.132;6.408;2022-09-20T15:18:26;5.15;;;1.30;;
59207;SDS011;44977;53.132;6.408;2022-09-20T15:23:33;7.57;;;1.30;;
59207;SDS011;44977;53.132;6.408;2022-09-20T15:28:34;7.75;;;1.33;;
59207;SDS011;44977;53.132;6.408;2022-09-20T15:33:35;6.05;;;1.00;;
59207;SDS011;44977;53.132;6.408;2022-09-20T15:38:36;5.30;;;1.02;;
59207;SDS011;44977;53.132;6.408;2022-09-20T15:43:37;6.05;;;1.10;;
59207;SDS011;44977;53.132;6.408;2022-09-20T15:48:38;6.10;;;1.02;;
59207;SDS011;44977;53.132;6.408;2022-09-20T15:53:43;4.85;;;0.98;;
59207;SDS011;44977;53.132;6.408;2022-09-20T15:58:49;5.77;;;1.20;;
59207;SDS011;44977;53.132;6.408;2022-09-20T16:03:51;6.97;;;1.13;;
59207;SDS011;44977;53.132;6.408;2022-09-20T16:08:52;5.47;;;1.00;;
59207;SDS011;44977;53.132;6.408;2022-09-20T16:13:55;5.35;;;1.25;;
59207;SDS011;44977;53.132;6.408;2022-09-20T16:18:56;6.63;;;1.30;;
59207;SDS011;44977;53.132;6.408;2022-09-20T16:24:16;5.88;;;1.20;;
59207;SDS011;44977;53.132;6.408;2022-09-20T16:29:17;7.82;;;1.38;;
59207;SDS011;44977;53.132;6.408;2022-09-20T16:34:19;4.22;;;0.90;;
59207;SDS011;44977;53.132;6.408;2022-09-20T16:39:21;5.47;;;0.93;;
59207;SDS011;44977;53.132;6.408;2022-09-20T16:44:28;5.72;;;1.30;;
59207;SDS011;44977;53.132;6.408;2022-09-20T16:49:29;6.32;;;0.95;;
59207;SDS011;44977;53.132;6.408;2022-09-20T16:54:29;7.75;;;1.45;;
59207;SDS011;44977;53.132;6.408;2022-09-20T16:59:30;5.28;;;1.10;;
59207;SDS011;44977;53.132;6.408;2022-09-20T17:04:31;4.78;;;1.00;;
59207;SDS011;44977;53.132;6.408;2022-09-20T17:09:31;7.53;;;1.30;;
59207;SDS011;44977;53.132;6.408;2022-09-20T17:14:32;5.30;;;1.30;;
59207;SDS011;44977;53.132;6.408;2022-09-20T17:19:33;6.38;;;1.30;;
59207;SDS011;44977;53.132;6.408;2022-09-20T17:24:33;7.97;;;1.55;;
59207;SDS011;44977;53.132;6.408;2022-09-20T17:29:34;5.88;;;1.30;;
59207;SDS011;44977;53.132;6.408;2022-09-20T17:34:35;5.25;;;1.25;;
59207;SDS011;44977;53.132;6.408;2022-09-20T17:39:35;6.07;;;1.40;;
59207;SDS011;44977;53.132;6.408;2022-09-20T17:44:36;7.70;;;1.50;;
59207;SDS011;44977;53.132;6.408;2022-09-20T17:49:37;7.40;;;1.45;;
59207;SDS011;44977;53.132;6.408;2022-09-20T17:54:39;7.22;;;1.70;;
59207;SDS011;44977;53.132;6.408;2022-09-20T17:59:41;8.25;;;2.05;;
59207;SDS011;44977;53.132;6.408;2022-09-20T18:04:41;8.65;;;2.95;;
59207;SDS011;44977;53.132;6.408;2022-09-20T18:09:42;10.75;;;3.90;;
59207;SDS011;44977;53.132;6.408;2022-09-20T18:14:43;9.65;;;4.93;;
59207;SDS011;44977;53.132;6.408;2022-09-20T18:19:43;11.70;;;5.72;;
59207;SDS011;44977;53.132;6.408;2022-09-20T18:24:44;13.05;;;5.50;;
59207;SDS011;44977;53.132;6.408;2022-09-20T18:29:45;7.63;;;2.60;;
59207;SDS011;44977;53.132;6.408;2022-09-20T18:34:46;8.18;;;2.50;;
59207;SDS011;44977;53.132;6.408;2022-09-20T18:39:50;8.85;;;2.70;;
59207;SDS011;44977;53.132;6.408;2022-09-20T18:44:50;9.45;;;3.00;;
59207;SDS011;44977;53.132;6.408;2022-09-20T18:49:51;8.30;;;2.67;;
59207;SDS011;44977;53.132;6.408;2022-09-20T18:54:52;10.23;;;3.38;;
59207;SDS011;44977;53.132;6.408;2022-09-20T18:59:55;8.27;;;2.90;;
59207;SDS011;44977;53.132;6.408;2022-09-20T19:10:51;9.32;;;3.78;;
59207;SDS011;44977;53.132;6.408;2022-09-20T19:26:30;7.82;;;3.30;;
59207;SDS011;44977;53.132;6.408;2022-09-20T19:31:38;14.30;;;9.18;;
59207;SDS011;44977;53.132;6.408;2022-09-20T19:52:28;8.18;;;3.35;;
59207;SDS011;44977;53.132;6.408;2022-09-20T19:57:34;10.35;;;3.97;;
59207;SDS011;44977;53.132;6.408;2022-09-20T20:02:42;8.77;;;3.92;;
59207;SDS011;44977;53.132;6.408;2022-09-20T20:12:55;9.93;;;4.60;;
59207;SDS011;44977;53.132;6.408;2022-09-20T20:18:13;10.52;;;6.75;;
59207;SDS011;44977;53.132;6.408;2022-09-20T20:24:21;9.45;;;5.45;;
59207;SDS011;44977;53.132;6.408;2022-09-20T20:28:58;9.90;;;5.10;;
59207;SDS011;44977;53.132;6.408;2022-09-20T20:33:59;11.20;;;5.38;;
59207;SDS011;44977;53.132;6.408;2022-09-20T20:38:59;9.68;;;4.50;;
59207;SDS011;44977;53.132;6.408;2022-09-20T20:44:01;10.05;;;4.28;;
59207;SDS011;44977;53.132;6.408;2022-09-20T20:49:05;9.77;;;4.43;;
59207;SDS011;44977;53.132;6.408;2022-09-20T20:54:05;9.15;;;6.28;;
59207;SDS011;44977;53.132;6.408;2022-09-20T20:59:06;12.55;;;7.97;;
59207;SDS011;44977;53.132;6.408;2022-09-20T21:04:08;12.57;;;7.97;;
59207;SDS011;44977;53.132;6.408;2022-09-20T21:09:10;21.73;;;17.00;;
59207;SDS011;44977;53.132;6.408;2022-09-20T21:14:12;20.00;;;16.40;;
59207;SDS011;44977;53.132;6.408;2022-09-20T21:19:17;15.00;;;10.35;;
59207;SDS011;44977;53.132;6.408;2022-09-20T21:24:19;11.38;;;6.80;;
59207;SDS011;44977;53.132;6.408;2022-09-20T21:29:19;9.98;;;6.10;;
59207;SDS011;44977;53.132;6.408;2022-09-20T21:34:20;10.52;;;5.60;;
59207;SDS011;44977;53.132;6.408;2022-09-20T21:39:21;10.13;;;5.32;;
59207;SDS011;44977;53.132;6.408;2022-09-20T21:44:21;9.93;;;5.18;;
59207;SDS011;44977;53.132;6.408;2022-09-20T21:49:22;10.60;;;5.80;;
59207;SDS011;44977;53.132;6.408;2022-09-20T21:54:23;10.50;;;6.65;;
59207;SDS011;44977;53.132;6.408;2022-09-20T21:59:23;12.55;;;7.00;;
59207;SDS011;44977;53.132;6.408;2022-09-20T22:04:25;10.25;;;6.53;;
59207;SDS011;44977;53.132;6.408;2022-09-20T22:09:28;9.73;;;5.97;;
59207;SDS011;44977;53.132;6.408;2022-09-20T22:14:29;11.13;;;5.68;;
59207;SDS011;44977;53.132;6.408;2022-09-20T22:19:29;10.02;;;4.60;;
59207;SDS011;44977;53.132;6.408;2022-09-20T22:24:31;9.60;;;5.10;;
59207;SDS011;44977;53.132;6.408;2022-09-20T22:29:32;11.10;;;4.72;;
59207;SDS011;44977;53.132;6.408;2022-09-20T22:34:32;9.57;;;4.45;;
59207;SDS011;44977;53.132;6.408;2022-09-20T22:39:33;9.07;;;4.72;;
59207;SDS011;44977;53.132;6.408;2022-09-20T22:44:34;8.23;;;4.30;;
59207;SDS011;44977;53.132;6.408;2022-09-20T22:49:35;9.55;;;4.18;;
59207;SDS011;44977;53.132;6.408;2022-09-20T22:54:35;7.47;;;3.92;;
59207;SDS011;44977;53.132;6.408;2022-09-20T22:59:36;9.27;;;3.80;;
59207;SDS011;44977;53.132;6.408;2022-09-20T23:04:37;8.27;;;3.92;;
59207;SDS011;44977;53.132;6.408;2022-09-20T23:09:38;9.02;;;4.20;;
59207;SDS011;44977;53.132;6.408;2022-09-20T23:14:39;8.77;;;3.97;;
59207;SDS011;44977;53.132;6.408;2022-09-20T23:19:39;9.85;;;3.70;;
59207;SDS011;44977;53.132;6.408;2022-09-20T23:24:40;6.95;;;3.75;;
59207;SDS011;44977;53.132;6.408;2022-09-20T23:29:41;8.27;;;4.20;;
59207;SDS011;44977;53.132;6.408;2022-09-20T23:34:42;8.18;;;3.83;;
59207;SDS011;44977;53.132;6.408;2022-09-20T23:39:43;8.10;;;3.78;;
59207;SDS011;44977;53.132;6.408;2022-09-20T23:44:44;8.23;;;3.80;;
59207;SDS011;44977;53.132;6.408;2022-09-20T23:49:45;9.10;;;3.75;;
59207;SDS011;44977;53.132;6.408;2022-09-20T23:54:46;10.68;;;3.70;;
59207;SDS011;44977;53.132;6.408;2022-09-20T23:59:46;9.10;;;3.70;;
